Time;durP1;ratioP1;P1;durP2;ratioP2;P2;SDS_P1;SDS_P2;PMS_P1;PMS_P2;Temp;Humidity;BMP_temperature;BMP_pressure;BME280_temperature;BME280_humidity;BME280_pressure;Samples;Min_cycle;Max_cycle;Signal;HPM_P1;HPM_P2
2021/12/16 00:08:22;;;;;;;51.88;21.50;;;;;;;-1.34;79.12;96107.78;4929440;29;20035;-80
2021/12/16 00:10:56;;;;;;;53.28;22.73;;;;;;;-1.06;78.86;96153.03;4931011;29;20404;-79
2021/12/16 00:34:48;;;;;;;47.67;20.45;;;;;;;-1.26;77.88;96112.91;4937290;29;20048;-80
2021/12/16 00:37:14;;;;;;;51.35;21.02;;;;;;;-0.90;78.14;96163.31;4935488;29;20139;-80
2021/12/16 00:39:41;;;;;;;49.67;19.02;;;;;;;-1.08;77.77;96142.03;4951138;28;20059;-80
2021/12/16 00:42:14;;;;;;;41.28;18.08;;;;;;;-2.16;77.85;95980.25;4936811;29;20044;-80
2021/12/16 00:47:26;;;;;;;56.10;22.65;;;;;;;-1.70;78.80;96063.38;4936906;29;20463;-79
2021/12/16 00:49:53;;;;;;;50.45;19.48;;;;;;;-2.24;78.34;95958.72;4937535;29;20409;-79
2021/12/16 00:55:26;;;;;;;50.78;22.10;;;;;;;-1.58;78.07;96061.97;4936672;29;20498;-80
2021/12/16 00:57:52;;;;;;;50.95;19.90;;;;;;;-0.85;77.98;96166.19;4935315;29;20471;-80
2021/12/16 01:00:20;;;;;;;51.65;19.65;;;;;;;-0.87;78.15;96160.34;4936809;29;20054;-80
2021/12/16 01:35:58;;;;;;;44.33;18.90;;;;;;;-1.30;78.45;96081.22;4938344;29;20059;-82
2021/12/16 01:55:17;;;;;;;48.55;20.73;;;;;;;-1.93;78.24;95982.00;4938384;29;20054;-82
2021/12/16 01:57:55;;;;;;;41.75;19.08;;;;;;;-0.94;78.40;96123.00;4935461;29;20059;-82
2021/12/16 02:00:31;;;;;;;43.20;16.48;;;;;;;-1.93;78.13;95974.22;4937594;29;20646;-82
2021/12/16 02:03:02;;;;;;;46.42;19.38;;;;;;;-1.40;78.27;96070.25;4946868;29;20044;-82
2021/12/16 02:08:18;;;;;;;39.35;17.40;;;;;;;-0.90;78.41;96134.66;4937612;29;20035;-82
2021/12/16 02:10:53;;;;;;;37.97;17.63;;;;;;;-0.89;78.65;96130.25;4946959;29;20483;-82
2021/12/16 02:13:41;;;;;;;40.95;18.02;;;;;;;-2.82;78.45;95846.69;4953007;29;20130;-82
2021/12/16 02:27:26;;;;;;;48.40;17.77;;;;;;;-0.82;78.69;96124.16;4940619;29;20050;-82
2021/12/16 02:27:26;;;;;;;35.45;16.77;;;;;;;-1.56;78.45;95997.56;4938174;29;20046;-80
2021/12/16 02:32:49;;;;;;;36.70;16.77;;;;;;;-1.22;78.32;96038.69;4936414;29;20087;-81
2021/12/16 02:35:33;;;;;;;40.60;18.60;;;;;;;-0.74;78.64;96127.66;4943627;29;20047;-79
2021/12/16 02:38:02;;;;;;;41.95;17.98;;;;;;;-1.52;78.61;95985.00;4945449;29;20074;-80
2021/12/16 02:40:28;;;;;;;40.15;16.92;;;;;;;-0.92;78.89;96102.81;4936273;29;20503;-80
2021/12/16 02:43:24;;;;;;;39.85;17.38;;;;;;;-1.47;78.77;96016.50;4934190;29;20058;-80
2021/12/16 02:48:38;;;;;;;37.28;16.65;;;;;;;-1.26;79.05;96055.66;4925441;29;20066;-80
2021/12/16 02:51:03;;;;;;;41.42;19.63;;;;;;;-0.88;79.16;96101.44;4936160;29;20064;-80
2021/12/16 02:53:29;;;;;;;39.63;17.70;;;;;;;-0.72;79.27;96120.47;4936085;29;20126;-80
2021/12/16 02:55:56;;;;;;;40.78;17.73;;;;;;;-0.71;79.29;96129.91;4918277;29;20586;-80
2021/12/16 02:58:22;;;;;;;43.58;17.35;;;;;;;-1.56;79.01;95984.56;4918658;29;20048;-80
2021/12/16 03:01:00;;;;;;;40.45;18.35;;;;;;;-0.58;78.71;96122.25;4936425;29;20051;-80
2021/12/16 03:03:26;;;;;;;41.88;18.75;;;;;;;-0.58;79.19;96123.06;4936385;29;20035;-80
2021/12/16 03:05:52;;;;;;;36.05;16.45;;;;;;;-0.59;78.98;96129.25;4935523;29;20067;-80
2021/12/16 03:08:18;;;;;;;40.33;18.58;;;;;;;-1.64;79.18;95959.44;4935556;29;20067;-80
2021/12/16 03:13:22;;;;;;;41.15;17.92;;;;;;;-1.38;78.69;96012.84;4935837;29;20517;-80
2021/12/16 03:21:27;;;;;;;36.95;17.05;;;;;;;-0.56;79.03;96121.09;4935007;29;20102;-81
2021/12/16 03:37:30;;;;;;;41.88;17.42;;;;;;;-0.44;79.07;96132.66;4935259;29;20123;-81
2021/12/16 03:40:00;;;;;;;41.33;18.02;;;;;;;-0.42;79.19;96130.69;4933697;29;20042;-80
2021/12/16 03:42:40;;;;;;;37.35;16.63;;;;;;;-0.43;79.07;96143.91;4932704;29;20040;-79
2021/12/16 03:48:22;;;;;;;38.70;16.75;;;;;;;-1.32;79.51;95996.50;4935239;29;20202;-80
2021/12/16 03:50:48;;;;;;;40.63;18.05;;;;;;;-0.75;79.40;96076.53;4934954;29;20046;-80
2021/12/16 03:53:16;;;;;;;37.90;16.83;;;;;;;-0.48;79.53;96154.06;4933620;29;20051;-80
2021/12/16 03:55:43;;;;;;;41.53;17.73;;;;;;;-0.45;79.43;96136.25;4934920;29;20044;-80
2021/12/16 03:58:09;;;;;;;35.53;16.50;;;;;;;-0.75;79.13;96108.63;4933224;29;20035;-80
2021/12/16 04:00:42;;;;;;;38.45;18.80;;;;;;;-0.60;79.20;96108.59;4934302;29;20047;-80
2021/12/16 04:03:08;;;;;;;36.00;16.40;;;;;;;-1.37;79.28;95984.03;4932211;29;20139;-80
2021/12/16 04:05:34;;;;;;;40.92;17.40;;;;;;;-0.43;79.77;96121.25;4932132;29;20044;-80
2021/12/16 04:07:59;;;;;;;38.47;16.45;;;;;;;-0.94;79.53;96063.09;4932829;29;20055;-80
2021/12/16 04:10:39;;;;;;;37.25;17.40;;;;;;;-0.85;79.24;96053.41;4934586;29;20039;-80
2021/12/16 04:13:08;;;;;;;37.00;17.13;;;;;;;-1.42;79.37;95975.16;4933579;29;20075;-80
2021/12/16 04:15:33;;;;;;;45.67;17.33;;;;;;;-0.41;79.59;96124.50;4916993;29;20044;-80
2021/12/16 04:18:00;;;;;;;38.70;17.17;;;;;;;-0.90;79.56;96053.94;4933124;29;20039;-81
2021/12/16 04:20:26;;;;;;;31.77;16.30;;;;;;;-0.38;79.71;96126.72;4917517;29;20601;-80
2021/12/16 04:22:52;;;;;;;42.00;18.42;;;;;;;-0.32;79.44;96135.63;4934528;29;20086;-80
2021/12/16 04:25:28;;;;;;;41.67;19.83;;;;;;;-1.29;78.75;95970.13;4935158;29;20036;-80
2021/12/16 04:27:56;;;;;;;43.03;18.60;;;;;;;-0.79;78.65;96052.69;4935004;29;20040;-80
2021/12/16 04:30:23;;;;;;;36.03;15.98;;;;;;;-0.30;78.73;96115.38;4933403;29;20467;-80
2021/12/16 04:32:49;;;;;;;42.55;18.85;;;;;;;-0.26;78.65;96113.22;4932300;29;20098;-80
2021/12/16 04:35:16;;;;;;;32.50;16.42;;;;;;;-0.97;78.60;96003.56;4916338;29;20053;-81
2021/12/16 04:37:42;;;;;;;39.95;17.23;;;;;;;-0.25;78.67;96112.25;4933737;29;20028;-80
2021/12/16 04:40:10;;;;;;;33.72;17.25;;;;;;;-0.84;78.29;96002.94;4933984;29;20070;-80
2021/12/16 04:42:37;;;;;;;39.85;17.27;;;;;;;-0.75;78.15;96030.47;4933434;29;20035;-80
2021/12/16 04:45:09;;;;;;;41.85;18.23;;;;;;;-0.43;78.77;96063.94;4942734;28;20057;-80
2021/12/16 04:47:35;;;;;;;34.83;17.42;;;;;;;-0.99;78.23;95989.91;4916648;29;20177;-80
2021/12/16 04:50:02;;;;;;;32.90;16.88;;;;;;;-0.12;78.54;96109.78;4933661;29;20043;-81
2021/12/16 04:52:27;;;;;;;34.88;16.88;;;;;;;-0.81;78.45;96032.00;4922977;29;20043;-80
2021/12/16 04:54:53;;;;;;;38.50;17.05;;;;;;;-0.96;78.63;95991.34;4931012;29;20110;-80
2021/12/16 04:57:18;;;;;;;35.05;16.77;;;;;;;-1.19;78.41;95957.63;4919210;29;20139;-80
2021/12/16 04:59:44;;;;;;;32.90;15.05;;;;;;;-0.90;78.90;96024.47;4927774;29;20047;-80
2021/12/16 05:02:17;;;;;;;34.83;16.23;;;;;;;-0.40;79.21;96088.81;4933420;29;20046;-80
2021/12/16 05:04:43;;;;;;;41.80;17.40;;;;;;;-1.45;79.41;95937.28;4933746;29;20532;-81
2021/12/16 05:07:09;;;;;;;37.45;18.08;;;;;;;-0.74;79.68;96031.28;4917904;29;20168;-81
2021/12/16 05:12:23;;;;;;;33.00;14.98;;;;;;;-1.41;79.99;95912.53;4933798;29;20131;-80
2021/12/16 05:14:49;;;;;;;31.48;15.75;;;;;;;-0.19;80.21;96112.31;4919182;29;20036;-81
2021/12/16 05:17:34;;;;;;;35.53;16.30;;;;;;;-0.71;80.20;96041.34;4916055;29;20138;-80
2021/12/16 05:20:05;;;;;;;37.00;15.88;;;;;;;-1.62;80.08;95889.84;4911068;29;20055;-80
2021/12/16 05:25:34;;;;;;;31.42;16.45;;;;;;;-1.12;80.23;95955.09;4911573;29;20059;-80
2021/12/16 05:28:00;;;;;;;30.27;14.98;;;;;;;-0.63;80.26;96036.84;4911582;29;20139;-80
2021/12/16 05:30:26;;;;;;;37.55;17.98;;;;;;;-1.07;80.34;95974.44;4904653;29;20310;-79
2021/12/16 05:32:52;;;;;;;33.65;16.13;;;;;;;-0.56;80.70;96115.88;4907472;29;20532;-80
2021/12/16 05:35:21;;;;;;;29.45;14.95;;;;;;;-0.40;80.47;96084.41;4903920;29;20079;-80
2021/12/16 05:37:47;;;;;;;35.63;15.38;;;;;;;-0.91;80.25;96007.22;4907401;29;20150;-80
2021/12/16 05:40:16;;;;;;;29.75;14.88;;;;;;;-1.24;80.07;95954.78;4907036;29;20362;-80
2021/12/16 05:42:43;;;;;;;29.58;14.73;;;;;;;-1.06;80.25;95975.19;4893082;29;20112;-80
2021/12/16 05:45:11;;;;;;;40.00;15.15;;;;;;;-0.25;80.07;96138.31;4907447;29;20044;-80
2021/12/16 05:47:37;;;;;;;32.53;13.63;;;;;;;-0.70;80.05;96035.97;4915632;29;20051;-81
2021/12/16 05:50:05;;;;;;;31.90;14.10;;;;;;;-0.42;80.52;96090.78;4896398;29;20047;-80
2021/12/16 05:52:40;;;;;;;28.17;12.95;;;;;;;-0.19;79.96;96108.91;4910557;29;20359;-79
2021/12/16 05:55:07;;;;;;;27.38;13.23;;;;;;;-1.27;80.02;95958.53;4907627;29;20063;-81
2021/12/16 05:57:33;;;;;;;27.83;13.63;;;;;;;-1.32;80.01;95944.47;4908947;29;20044;-80
2021/12/16 05:59:59;;;;;;;26.27;13.98;;;;;;;-0.68;80.03;96031.34;4910873;29;20570;-80
2021/12/16 06:02:25;;;;;;;30.02;13.95;;;;;;;-0.82;79.86;96016.56;4909717;29;20048;-81
2021/12/16 06:04:51;;;;;;;28.73;14.45;;;;;;;-0.86;79.85;96026.56;4905650;29;20158;-80
2021/12/16 06:07:20;;;;;;;26.70;13.95;;;;;;;-1.01;79.94;95989.31;4904801;29;20290;-81
2021/12/16 06:09:47;;;;;;;29.33;15.10;;;;;;;-1.77;79.46;95912.47;4906934;29;20688;-80
2021/12/16 06:12:14;;;;;;;31.60;15.80;;;;;;;-0.98;79.73;96004.56;4903730;29;20334;-81
2021/12/16 06:14:53;;;;;;;27.08;12.98;;;;;;;-0.52;79.67;96085.84;4907797;29;20047;-80
2021/12/16 06:28:18;;;;;;;26.77;13.32;;;;;;;-0.48;79.25;96086.31;4922745;29;20256;-81
2021/12/16 06:30:44;;;;;;;25.85;12.70;;;;;;;-0.68;79.10;96065.22;4922710;29;20142;-80
2021/12/16 06:33:14;;;;;;;25.90;12.55;;;;;;;-0.89;79.35;96003.47;4923883;29;20031;-79
2021/12/16 06:35:41;;;;;;;23.15;12.02;;;;;;;-0.19;79.41;96108.91;4907720;29;20035;-80
2021/12/16 06:38:06;;;;;;;26.58;12.80;;;;;;;-0.90;79.42;96024.47;4918396;29;20047;-80
2021/12/16 06:40:32;;;;;;;23.52;11.48;;;;;;;-0.17;79.25;96119.97;4921413;29;20083;-80
2021/12/16 06:43:00;;;;;;;29.88;13.57;;;;;;;-0.61;79.34;96034.84;4919690;29;20324;-80
2021/12/16 06:45:30;;;;;;;31.48;12.82;;;;;;;-0.49;79.16;96058.63;4921801;29;20162;-80
2021/12/16 06:48:08;;;;;;;24.25;11.27;;;;;;;-1.24;79.02;95933.97;4923061;29;20050;-81
2021/12/16 06:53:05;;;;;;;24.55;12.77;;;;;;;-1.10;78.84;95963.56;4923990;29;20439;-80
2021/12/16 06:55:42;;;;;;;21.50;11.25;;;;;;;-1.95;78.59;95818.41;4919796;29;20444;-80
2021/12/16 06:59:04;;;;;;;22.13;11.55;;;;;;;-1.86;78.28;95829.53;4919891;29;20043;-80
2021/12/16 07:01:12;;;;;;;27.80;12.60;;;;;;;-0.66;78.13;96002.53;4917430;29;20161;-80
2021/12/16 07:03:47;;;;;;;19.70;9.95;;;;;;;-0.81;78.55;95981.72;4920859;29;20749;-80
2021/12/16 07:06:18;;;;;;;20.85;11.85;;;;;;;-0.07;78.55;96103.00;4936408;28;20047;-80
2021/12/16 07:08:45;;;;;;;24.92;12.40;;;;;;;0.06;78.05;96112.78;4925228;29;20043;-81
2021/12/16 07:11:11;;;;;;;24.20;10.15;;;;;;;0.10;77.69;96124.44;4900047;29;20105;-80
2021/12/16 07:13:41;;;;;;;23.30;12.07;;;;;;;-0.70;77.47;95978.66;4914089;29;20074;-80
2021/12/16 07:16:08;;;;;;;27.08;11.80;;;;;;;-1.28;77.13;95910.06;4914517;29;20043;-80
2021/12/16 07:18:34;;;;;;;26.55;10.82;;;;;;;-0.22;77.26;96044.88;4918963;29;20047;-80
2021/12/16 07:20:59;;;;;;;26.40;12.35;;;;;;;0.23;76.96;96110.75;4924058;29;20064;-80
2021/12/16 07:23:25;;;;;;;26.48;11.85;;;;;;;0.24;76.62;96120.16;4917786;29;20071;-80
2021/12/16 07:25:50;;;;;;;21.67;11.05;;;;;;;-1.31;76.32;95871.44;4918830;29;20495;-81
2021/12/16 07:28:16;;;;;;;23.95;10.93;;;;;;;0.11;76.55;96092.16;4915542;29;20463;-80
2021/12/16 07:30:44;;;;;;;24.23;10.35;;;;;;;0.31;76.07;96137.50;4921292;29;20099;-81
2021/12/16 07:33:12;;;;;;;23.75;10.63;;;;;;;-0.93;75.71;95931.13;4918446;29;20048;-80
2021/12/16 07:35:39;;;;;;;24.23;10.63;;;;;;;-0.56;75.65;95985.63;4922727;29;20139;-81
2021/12/16 07:38:05;;;;;;;19.35;10.95;;;;;;;0.13;75.75;96074.53;4926054;29;20040;-81
2021/12/16 07:40:31;;;;;;;23.30;10.73;;;;;;;0.19;75.68;96097.25;4922044;29;20048;-81
2021/12/16 07:45:26;;;;;;;19.65;10.25;;;;;;;-0.46;75.78;95995.75;4923204;29;20248;-81
2021/12/16 07:47:54;;;;;;;22.17;10.68;;;;;;;0.26;75.71;96105.16;4919856;29;20121;-81
2021/12/16 07:50:22;;;;;;;18.58;9.13;;;;;;;-1.51;75.21;95838.34;4917154;29;20074;-80
2021/12/16 07:52:47;;;;;;;19.13;9.15;;;;;;;-0.77;75.28;95976.97;4930056;29;20048;-81
2021/12/16 07:55:15;;;;;;;26.42;11.45;;;;;;;0.43;75.75;96127.38;4920933;29;20121;-79
2021/12/16 07:57:41;;;;;;;16.15;8.77;;;;;;;-0.87;75.20;95933.78;4918232;29;20095;-80
2021/12/16 08:00:18;;;;;;;20.30;9.77;;;;;;;-0.66;75.22;95966.06;4924461;29;20119;-80
2021/12/16 08:02:47;;;;;;;21.00;8.85;;;;;;;-3.67;74.90;95475.25;4920608;29;20043;-80
2021/12/16 08:05:14;;;;;;;18.25;8.77;;;;;;;-1.42;74.62;95819.03;4919643;29;20348;-80
2021/12/16 08:07:41;;;;;;;16.48;8.27;;;;;;;-0.63;74.86;95991.75;4920051;29;20507;-80
2021/12/16 08:10:10;;;;;;;17.00;8.25;;;;;;;-1.72;74.44;95850.31;4906550;29;20039;-80
2021/12/16 08:12:36;;;;;;;17.33;9.35;;;;;;;-1.50;74.87;95796.53;4922930;29;20051;-79
2021/12/16 08:15:03;;;;;;;18.77;8.70;;;;;;;0.01;75.07;96052.53;4913801;29;20050;-80
2021/12/16 08:17:29;;;;;;;23.15;9.85;;;;;;;0.14;75.66;96111.88;4908274;29;20122;-80
2021/12/16 08:19:54;;;;;;;25.90;10.65;;;;;;;0.32;75.07;96088.72;4912812;29;20142;-80
2021/12/16 08:22:20;;;;;;;20.42;10.15;;;;;;;-4.20;75.04;95357.13;4919950;29;20087;-80
2021/12/16 08:24:45;;;;;;;24.05;10.27;;;;;;;0.72;75.97;96126.44;4921388;29;20039;-80
2021/12/16 08:27:12;;;;;;;22.77;9.23;;;;;;;-0.14;75.55;95986.59;4927608;29;20055;-80
2021/12/16 08:29:38;;;;;;;22.55;9.70;;;;;;;-0.22;75.64;95976.31;4925142;29;20709;-81
2021/12/16 08:32:04;;;;;;;18.50;9.15;;;;;;;-0.39;75.39;95944.50;4923190;29;20118;-80
2021/12/16 08:34:31;;;;;;;20.95;11.02;;;;;;;0.25;75.69;96052.16;4912913;29;20273;-81
2021/12/16 08:36:56;;;;;;;30.67;9.93;;;;;;;-0.18;75.25;95993.19;4911951;29;20053;-80
2021/12/16 08:39:23;;;;;;;17.48;9.95;;;;;;;-0.10;75.46;95988.66;4921597;29;20055;-81
2021/12/16 08:41:50;;;;;;;18.83;9.85;;;;;;;0.61;75.86;96112.06;4919074;29;20428;-79
2021/12/16 08:44:17;;;;;;;26.58;9.98;;;;;;;0.31;75.63;96054.00;4919275;29;20032;-79
2021/12/16 08:46:47;;;;;;;18.45;9.35;;;;;;;0.86;75.46;96130.75;4917099;29;20040;-79
2021/12/16 08:49:14;;;;;;;23.63;10.05;;;;;;;0.91;75.61;96115.34;4920592;29;20210;-79
2021/12/16 08:51:49;;;;;;;25.45;10.85;;;;;;;0.56;75.58;96077.91;4904287;29;20054;-80
2021/12/16 08:54:16;;;;;;;19.83;10.13;;;;;;;0.61;75.65;96085.97;4924072;29;20066;-79
2021/12/16 08:56:42;;;;;;;18.05;8.88;;;;;;;0.80;75.78;96121.06;4911773;29;20059;-79
2021/12/16 08:59:08;;;;;;;31.35;11.45;;;;;;;0.26;75.49;96024.28;4925998;29;20708;-79
2021/12/16 09:01:39;;;;;;;21.98;10.40;;;;;;;0.30;75.58;96007.25;4927400;29;20048;-80
2021/12/16 09:04:04;;;;;;;19.10;9.07;;;;;;;0.14;74.84;96016.16;4923512;29;20052;-79
2021/12/16 09:06:31;;;;;;;15.35;8.63;;;;;;;0.72;75.47;96090.69;4925244;29;20050;-79
2021/12/16 09:08:57;;;;;;;20.13;9.48;;;;;;;0.71;74.92;96081.22;4929758;29;20051;-79
2021/12/16 09:11:25;;;;;;;17.77;9.38;;;;;;;0.46;74.60;96045.31;4916730;29;20143;-79
2021/12/16 09:13:54;;;;;;;17.83;9.35;;;;;;;0.05;74.98;95967.72;4925547;29;20045;-79
2021/12/16 09:16:23;;;;;;;16.30;8.27;;;;;;;0.88;74.63;96091.38;4927723;29;20517;-79
2021/12/16 09:18:49;;;;;;;25.73;10.40;;;;;;;0.10;74.31;95967.16;4919361;29;20093;-78
2021/12/16 09:21:19;;;;;;;21.25;9.20;;;;;;;0.67;74.38;96038.25;4924027;29;20083;-79
2021/12/16 09:23:46;;;;;;;13.75;7.90;;;;;;;0.12;73.84;95968.59;4925873;29;23037;-79
2021/12/16 09:26:13;;;;;;;16.33;8.40;;;;;;;0.55;74.22;96044.16;4923449;29;20118;-80
2021/12/16 09:28:40;;;;;;;16.23;8.10;;;;;;;0.98;74.29;96089.25;4925136;29;20055;-80
2021/12/16 09:31:11;;;;;;;21.35;8.32;;;;;;;0.96;74.18;96081.59;4923617;29;20707;-81
2021/12/16 09:33:42;;;;;;;28.85;7.78;;;;;;;0.91;74.36;96101.47;4925637;29;20123;-80
2021/12/16 09:36:11;;;;;;;23.88;8.68;;;;;;;0.54;73.97;96016.44;4925257;29;20103;-80
2021/12/16 09:38:38;;;;;;;12.63;7.00;;;;;;;0.17;74.00;95968.81;4925583;29;20139;-80
2021/12/16 09:41:04;;;;;;;13.48;6.97;;;;;;;0.12;73.85;95933.88;4942571;28;20415;-81
2021/12/16 09:43:38;;;;;;;15.68;7.57;;;;;;;0.99;74.31;96080.44;4923948;29;20043;-80
2021/12/16 09:46:07;;;;;;;12.82;6.60;;;;;;;0.98;74.10;96094.47;4926019;29;20087;-80
2021/12/16 09:48:39;;;;;;;23.30;8.40;;;;;;;0.02;73.94;95973.31;4926863;29;20039;-80
2021/12/16 09:51:09;;;;;;;13.02;6.68;;;;;;;0.11;74.12;95942.69;4939178;28;20183;-80
2021/12/16 09:53:37;;;;;;;14.20;6.88;;;;;;;0.44;74.33;95995.91;4922151;29;20743;-81
2021/12/16 09:56:09;;;;;;;16.27;7.07;;;;;;;-0.12;74.48;95922.84;4919078;29;20055;-81
2021/12/16 09:58:42;;;;;;;13.85;6.82;;;;;;;0.09;74.93;95957.72;4923003;29;20047;-81
2021/12/16 10:01:10;;;;;;;15.88;6.45;;;;;;;0.58;73.93;96038.56;4923315;29;20230;-80
2021/12/16 10:03:42;;;;;;;13.57;5.65;;;;;;;0.59;74.76;96027.13;4923938;29;20062;-81
2021/12/16 10:06:08;;;;;;;10.10;6.25;;;;;;;0.48;75.02;96025.03;4924790;29;20047;-81
2021/12/16 10:08:36;;;;;;;20.77;8.38;;;;;;;-1.23;74.88;95730.78;4925422;29;20840;-80
2021/12/16 10:11:03;;;;;;;12.65;6.97;;;;;;;0.97;75.40;96066.75;4921949;29;20048;-81
2021/12/16 10:13:42;;;;;;;13.95;6.47;;;;;;;0.22;74.91;95942.97;4924533;29;20039;-80
2021/12/16 10:18:37;;;;;;;15.20;7.68;;;;;;;0.30;75.56;95953.28;4925282;29;20514;-80
2021/12/16 10:21:06;;;;;;;15.50;6.38;;;;;;;-0.73;75.64;95762.81;4926211;29;20059;-80
2021/12/16 10:23:44;;;;;;;12.40;7.75;;;;;;;-1.37;75.33;95663.19;4920748;29;20594;-79
2021/12/16 10:26:20;;;;;;;18.27;7.68;;;;;;;-0.89;75.71;95718.81;4923522;29;20031;-79
2021/12/16 10:28:49;;;;;;;16.63;8.18;;;;;;;-0.19;75.84;95869.06;4918761;29;20051;-79
2021/12/16 10:31:34;;;;;;;13.30;7.95;;;;;;;1.01;76.21;96034.00;4918888;29;20135;-80
2021/12/16 10:34:05;;;;;;;18.48;6.55;;;;;;;0.99;75.68;96036.81;4922332;29;20050;-79
2021/12/16 10:36:35;;;;;;;14.35;6.60;;;;;;;0.61;76.19;95986.00;4917517;29;20047;-80
2021/12/16 10:39:17;;;;;;;20.17;7.43;;;;;;;0.96;75.95;96044.22;4920072;29;20369;-81
2021/12/16 10:41:54;;;;;;;16.63;7.60;;;;;;;0.29;76.28;95916.94;4919715;29;20070;-81
2021/12/16 10:44:33;;;;;;;19.75;8.32;;;;;;;1.01;75.75;96015.72;4922455;29;20052;-80
2021/12/16 10:47:10;;;;;;;20.20;8.55;;;;;;;0.87;75.88;96019.25;4921232;29;20243;-80
2021/12/16 10:49:50;;;;;;;13.43;7.40;;;;;;;1.02;75.86;96014.72;4925722;29;20468;-80
2021/12/16 10:52:26;;;;;;;16.27;7.28;;;;;;;0.46;74.93;95944.31;4908976;29;20047;-80
2021/12/16 10:54:53;;;;;;;14.70;7.57;;;;;;;0.98;75.63;96037.00;4927225;29;20042;-80
2021/12/16 10:57:25;;;;;;;14.30;7.63;;;;;;;0.24;75.10;95906.25;4929014;29;20043;-80
2021/12/16 11:00:13;;;;;;;12.25;6.95;;;;;;;0.45;75.26;95958.38;4941679;28;20157;-81
2021/12/16 11:02:40;;;;;;;14.52;7.85;;;;;;;1.03;75.22;96011.94;4910357;29;20412;-80
2021/12/16 11:05:05;;;;;;;17.70;8.98;;;;;;;1.13;74.85;95988.06;4941770;28;20043;-80
2021/12/16 11:07:32;;;;;;;20.60;8.85;;;;;;;1.12;74.94;95997.69;4924682;29;20176;-81
2021/12/16 11:10:03;;;;;;;16.13;8.77;;;;;;;1.20;75.26;96009.78;4922286;29;20051;-81
2021/12/16 11:12:56;;;;;;;15.73;8.43;;;;;;;0.47;74.45;95921.63;4922887;29;20055;-80
2021/12/16 11:15:32;;;;;;;18.85;9.80;;;;;;;0.41;74.28;95876.25;4906523;29;20074;-81
2021/12/16 11:17:58;;;;;;;19.23;9.25;;;;;;;1.26;74.38;96002.97;4928784;29;20076;-81
2021/12/16 11:20:41;;;;;;;22.50;8.45;;;;;;;1.31;74.03;95998.75;4926633;29;20056;-81
2021/12/16 11:23:21;;;;;;;14.23;8.13;;;;;;;-0.15;74.61;95797.28;4942982;28;20073;-81
2021/12/16 11:25:57;;;;;;;15.85;8.43;;;;;;;1.18;75.21;95996.13;4930248;29;20687;-82
2021/12/16 11:28:42;;;;;;;16.02;9.25;;;;;;;1.25;74.68;95999.56;4925594;29;20059;-81
2021/12/16 11:31:12;;;;;;;22.33;8.75;;;;;;;1.22;74.85;96005.16;4923976;29;20146;-80
2021/12/16 11:33:48;;;;;;;21.80;9.45;;;;;;;0.48;74.39;95884.91;4919985;29;20055;-81
2021/12/16 11:36:22;;;;;;;15.57;8.63;;;;;;;1.14;74.82;95995.69;4924500;29;20301;-81
2021/12/16 11:39:04;;;;;;;13.75;7.80;;;;;;;0.19;75.10;95856.47;4910122;29;20251;-82
2021/12/16 11:41:29;;;;;;;16.92;8.63;;;;;;;1.11;75.34;95993.47;4920222;29;20783;-83
2021/12/16 11:44:18;;;;;;;17.58;8.25;;;;;;;1.19;74.94;96004.75;4925318;29;20179;-82
2021/12/16 11:47:06;;;;;;;20.63;9.10;;;;;;;1.01;74.75;95976.53;4926542;29;20273;-81
2021/12/16 11:49:36;;;;;;;23.55;9.75;;;;;;;0.21;74.45;95838.81;4913600;29;20043;-82
2021/12/16 11:52:12;;;;;;;15.75;9.48;;;;;;;1.21;74.81;96000.97;4914041;29;20044;-82
2021/12/16 11:54:54;;;;;;;15.07;8.93;;;;;;;1.17;74.79;95990.06;4925618;29;20115;-82
2021/12/16 11:57:25;;;;;;;;;;;;;;;1.22;75.28;95997.31;4928604;29;20078;-81
2021/12/16 12:00:06;;;;;;;17.38;10.48;;;;;;;1.08;75.25;95956.47;4928405;29;20531;-81
2021/12/16 12:02:41;;;;;;;19.15;9.07;;;;;;;1.22;75.48;95975.63;4930307;29;20142;-81
2021/12/16 12:05:28;;;;;;;20.08;9.88;;;;;;;1.25;74.84;95975.22;4918919;29;20142;-82
2021/12/16 12:07:57;;;;;;;26.42;10.45;;;;;;;1.22;75.08;95980.88;4926379;29;20057;-82
2021/12/16 12:10:45;;;;;;;20.70;9.38;;;;;;;1.22;74.99;95986.88;4930238;29;20404;-82
2021/12/16 12:13:24;;;;;;;20.63;10.02;;;;;;;0.38;75.32;95871.44;4928942;29;20067;-83
2021/12/16 12:16:05;;;;;;;18.27;10.45;;;;;;;1.23;75.70;95985.06;4913492;29;20051;-82
2021/12/16 12:18:39;;;;;;;23.73;10.60;;;;;;;0.60;75.22;95888.59;4946911;28;20047;-83
2021/12/16 12:21:23;;;;;;;20.52;10.60;;;;;;;1.28;75.45;95985.31;4929209;29;20071;-82
2021/12/16 12:23:58;;;;;;;25.52;11.73;;;;;;;0.37;75.47;95886.28;4929004;29;20051;-81
2021/12/16 12:26:26;;;;;;;21.38;10.65;;;;;;;0.75;75.48;95925.81;4925752;29;20043;-81
2021/12/16 12:29:03;;;;;;;23.20;11.35;;;;;;;1.16;75.72;96000.72;4932133;29;20562;-81
2021/12/16 12:31:31;;;;;;;21.23;10.02;;;;;;;0.62;75.24;95915.28;4929697;29;20047;-82
2021/12/16 12:33:58;;;;;;;22.85;11.23;;;;;;;1.18;74.84;95990.88;4930255;29;20047;-81
2021/12/16 12:36:25;;;;;;;19.40;10.25;;;;;;;0.28;74.79;95865.75;4930887;29;20055;-82
2021/12/16 12:38:52;;;;;;;21.73;11.95;;;;;;;0.32;75.33;95861.75;4933144;29;20229;-81
2021/12/16 12:41:19;;;;;;;23.83;10.18;;;;;;;1.16;74.72;95991.06;4933289;29;20097;-82
2021/12/16 12:43:45;;;;;;;21.42;10.90;;;;;;;0.39;75.06;95878.25;4920729;29;20051;-82
2021/12/16 12:46:18;;;;;;;18.95;10.63;;;;;;;0.51;75.10;95912.44;4920196;29;20040;-82
2021/12/16 12:48:47;;;;;;;22.58;11.27;;;;;;;-0.11;75.39;95803.72;4930999;29;21335;-81
2021/12/16 12:51:13;;;;;;;20.95;11.18;;;;;;;0.84;75.17;95954.38;4932745;29;20035;-82
2021/12/16 12:53:50;;;;;;;22.65;12.18;;;;;;;1.17;75.45;95990.06;4936397;29;20521;-82
2021/12/16 12:56:21;;;;;;;23.65;12.68;;;;;;;1.15;75.12;95988.66;4929454;29;20047;-83
2021/12/16 12:59:01;;;;;;;28.75;11.98;;;;;;;-0.05;75.16;95788.13;4942642;29;20058;-81
2021/12/16 13:01:52;;;;;;;28.02;13.10;;;;;;;1.13;75.18;95977.59;4926275;29;20148;-83
2021/12/16 13:04:24;;;;;;;22.75;11.82;;;;;;;1.11;74.43;95984.84;4918138;29;20108;-82
2021/12/16 13:06:54;;;;;;;26.65;12.60;;;;;;;1.16;75.11;95980.63;4926484;29;20043;-82
2021/12/16 13:09:31;;;;;;;22.10;11.57;;;;;;;0.57;74.84;95896.81;4929789;29;20155;-82
2021/12/16 13:11:57;;;;;;;23.75;13.05;;;;;;;0.87;74.92;95940.91;4927049;29;20138;-82
2021/12/16 13:14:40;;;;;;;23.55;12.27;;;;;;;0.43;74.57;95865.63;4933942;29;20111;-81
2021/12/16 13:28:21;;;;;;;26.52;13.20;;;;;;;-0.30;74.92;95766.13;4930666;29;20047;-82
2021/12/16 13:31:00;;;;;;;23.73;13.13;;;;;;;0.19;74.92;95846.84;4916838;29;20170;-82
2021/12/16 13:33:54;;;;;;;24.48;11.88;;;;;;;0.37;74.72;95862.78;4929400;29;20058;-82
2021/12/16 13:36:39;;;;;;;21.23;12.18;;;;;;;0.91;74.62;95976.09;4916182;29;20035;-81
2021/12/16 13:39:09;;;;;;;29.85;13.25;;;;;;;0.73;74.83;95930.41;4931222;29;20040;-81
2021/12/16 13:41:36;;;;;;;24.23;12.95;;;;;;;0.94;75.02;95955.63;4930894;29;20110;-81
2021/12/16 13:44:14;;;;;;;26.23;13.60;;;;;;;0.24;74.84;95846.25;4931404;29;20102;-83
2021/12/16 13:58:30;;;;;;;39.92;16.65;;;;;;;-0.76;75.26;95689.50;4933815;29;20050;-82
2021/12/16 14:01:36;;;;;;;23.40;13.23;;;;;;;0.47;75.04;95885.09;4933697;29;20032;-83
2021/12/16 14:10:09;;;;;;;30.25;14.15;;;;;;;0.51;75.70;95915.84;4932204;29;19965;-83
2021/12/16 14:15:43;;;;;;;31.45;15.73;;;;;;;0.85;74.82;95966.41;4929267;29;20552;-82
2021/12/16 14:25:22;;;;;;;39.00;14.90;;;;;;;1.01;74.26;95979.16;4912354;29;19943;-82
2021/12/16 14:39:19;;;;;;;36.95;15.73;;;;;;;-0.34;74.58;95785.75;4905182;29;20048;-81
2021/12/16 14:41:52;;;;;;;34.67;15.10;;;;;;;0.49;73.87;95938.72;4918279;29;20074;-80
2021/12/16 14:49:50;;;;;;;29.90;14.10;;;;;;;1.06;73.95;96035.06;4891838;29;19934;-83
2021/12/16 14:52:25;;;;;;;27.67;13.55;;;;;;;1.04;73.92;96025.78;4911330;29;20044;-80
2021/12/16 14:55:02;;;;;;;31.48;14.48;;;;;;;0.39;74.06;95901.72;4921369;29;20052;-79
2021/12/16 14:57:36;;;;;;;30.00;14.27;;;;;;;0.48;73.86;95938.91;4912550;29;20048;-79
2021/12/16 15:00:10;;;;;;;37.50;16.92;;;;;;;1.08;74.35;96019.16;4904783;29;20365;-79
2021/12/16 15:02:38;;;;;;;32.58;13.88;;;;;;;0.80;73.86;95982.66;4919003;29;20051;-79
2021/12/16 15:05:24;;;;;;;30.83;14.38;;;;;;;0.85;73.89;95987.31;4920542;29;20391;-78
2021/12/16 15:07:50;;;;;;;30.88;14.38;;;;;;;0.38;74.15;95915.78;4924871;29;20093;-82